Time;durP1;ratioP1;P1;durP2;ratioP2;P2;SDS_P1;SDS_P2;PMS_P1;PMS_P2;Temp;Humidity;BMP_temperature;BMP_pressure;BME280_temperature;BME280_humidity;BME280_pressure;Samples;Min_cycle;Max_cycle;Signal;HPM_P1;HPM_P2
2022/04/24 00:00:40;;;;;;;7.43;4.18;;;;;;;13.44;47.65;100172.75;5116039;28;20114;-48
2022/04/24 00:03:08;;;;;;;7.93;4.55;;;;;;;13.41;47.89;100171.44;5114734;28;20040;-49
2022/04/24 00:05:37;;;;;;;6.05;4.18;;;;;;;13.47;47.88;100176.81;5115281;28;20074;-49
2022/04/24 00:08:05;;;;;;;7.25;4.20;;;;;;;13.40;47.78;100178.03;5097024;28;20039;-50
2022/04/24 00:10:32;;;;;;;10.48;4.68;;;;;;;13.31;48.42;100170.81;5115347;28;20039;-52
2022/04/24 00:13:00;;;;;;;8.20;4.50;;;;;;;13.32;48.29;100164.22;5116216;28;20151;-49
2022/04/24 00:15:27;;;;;;;6.65;4.25;;;;;;;13.35;48.15;100169.94;5114810;28;20050;-48
2022/04/24 00:17:55;;;;;;;6.20;4.40;;;;;;;13.35;48.63;100163.66;5115530;28;20036;-52
2022/04/24 00:20:23;;;;;;;6.65;4.38;;;;;;;13.29;48.84;100170.31;5116105;27;20485;-49
2022/04/24 00:22:50;;;;;;;7.07;4.43;;;;;;;13.24;48.64;100162.19;5115999;28;20046;-52
2022/04/24 00:25:18;;;;;;;5.50;3.90;;;;;;;13.15;49.17;100162.84;5114428;28;20039;-50
2022/04/24 00:27:46;;;;;;;6.95;4.28;;;;;;;13.20;48.92;100159.22;5115335;28;20070;-48
2022/04/24 00:30:13;;;;;;;7.18;4.43;;;;;;;13.16;48.82;100155.47;5115361;28;20048;-49
2022/04/24 00:32:41;;;;;;;8.10;4.30;;;;;;;13.14;49.22;100149.50;5106900;27;20035;-49
2022/04/24 00:35:09;;;;;;;6.38;4.43;;;;;;;13.05;49.11;100143.91;5114308;28;20440;-50
2022/04/24 00:37:37;;;;;;;6.88;4.35;;;;;;;13.07;49.31;100149.88;5115254;28;20132;-50
2022/04/24 00:40:05;;;;;;;6.07;4.43;;;;;;;12.99;49.41;100145.13;5115102;28;20044;-51
2022/04/24 00:42:32;;;;;;;5.65;3.47;;;;;;;12.97;49.47;100141.88;5114873;28;20044;-49
2022/04/24 00:45:00;;;;;;;7.85;4.68;;;;;;;12.98;49.45;100143.47;5130418;27;20039;-53
2022/04/24 00:47:36;;;;;;;6.65;4.70;;;;;;;13.01;49.41;100148.34;5134739;27;20043;-48
2022/04/24 00:50:06;;;;;;;6.70;4.35;;;;;;;12.94;49.22;100142.44;5134364;27;20051;-49
2022/04/24 00:52:34;;;;;;;7.03;4.40;;;;;;;12.99;49.42;100136.91;5131901;27;20039;-49
2022/04/24 00:55:02;;;;;;;5.63;3.90;;;;;;;12.93;49.61;100140.84;5117932;27;20051;-48
2022/04/24 00:57:30;;;;;;;7.88;4.82;;;;;;;12.87;49.69;100137.41;5113847;28;20047;-49
2022/04/24 00:59:58;;;;;;;6.05;4.07;;;;;;;12.79;49.75;100135.34;5113784;28;20047;-48
2022/04/24 01:02:26;;;;;;;8.93;4.68;;;;;;;12.75;50.00;100143.34;5113509;28;20047;-49
2022/04/24 01:04:54;;;;;;;7.10;4.38;;;;;;;12.73;49.96;100137.34;5132349;27;20070;-49
2022/04/24 01:07:21;;;;;;;7.30;4.18;;;;;;;12.81;49.73;100144.03;5118858;27;20059;-47
2022/04/24 01:09:49;;;;;;;7.00;4.22;;;;;;;12.69;50.24;100144.50;5114862;28;20492;-49
2022/04/24 01:12:16;;;;;;;6.20;4.00;;;;;;;12.67;51.01;100149.47;5114975;27;20497;-49
2022/04/24 01:14:44;;;;;;;6.28;4.05;;;;;;;12.71;50.85;100149.69;5116132;27;20051;-50
2022/04/24 01:17:12;;;;;;;6.00;4.00;;;;;;;12.59;50.36;100150.16;5114156;28;20036;-48
2022/04/24 01:19:40;;;;;;;6.47;4.03;;;;;;;12.60;50.96;100151.75;5114605;28;20424;-47
2022/04/24 01:22:08;;;;;;;6.30;4.20;;;;;;;12.61;50.57;100142.47;5113159;28;20432;-45
2022/04/24 01:24:35;;;;;;;5.57;3.97;;;;;;;12.62;50.86;100155.00;5126860;27;20058;-45
2022/04/24 01:27:04;;;;;;;5.70;4.13;;;;;;;12.56;50.66;100151.56;5113227;28;20047;-45
2022/04/24 01:29:32;;;;;;;6.60;4.30;;;;;;;12.47;50.91;100152.53;5113179;28;20127;-47
2022/04/24 01:31:59;;;;;;;6.50;4.13;;;;;;;12.46;51.31;100150.91;5111774;28;20039;-48
2022/04/24 01:34:27;;;;;;;5.85;4.30;;;;;;;12.32;51.67;100148.13;5113574;28;20494;-49
2022/04/24 01:36:55;;;;;;;7.20;4.68;;;;;;;12.28;52.05;100153.34;5114286;28;20431;-47
2022/04/24 01:39:22;;;;;;;6.72;4.43;;;;;;;12.19;52.21;100148.84;5112628;28;20043;-50
2022/04/24 01:41:51;;;;;;;7.95;4.35;;;;;;;12.11;52.43;100150.34;5113982;28;20503;-48
2022/04/24 01:44:19;;;;;;;7.15;4.60;;;;;;;11.96;53.00;100150.56;5121329;27;20057;-50
2022/04/24 01:46:47;;;;;;;7.43;4.50;;;;;;;12.02;53.18;100154.81;5114374;27;20051;-50
2022/04/24 01:49:15;;;;;;;7.03;4.50;;;;;;;12.01;53.41;100148.56;5114102;28;20489;-47
2022/04/24 01:51:44;;;;;;;7.22;4.80;;;;;;;12.08;52.89;100150.94;5112999;28;20051;-47
2022/04/24 01:54:12;;;;;;;8.90;4.30;;;;;;;12.17;52.18;100146.44;5113616;28;20130;-44
2022/04/24 01:56:39;;;;;;;6.60;4.45;;;;;;;12.10;53.02;100148.72;5113480;28;20088;-46
2022/04/24 01:59:07;;;;;;;7.65;5.03;;;;;;;12.04;53.11;100152.63;5113459;28;20051;-49
2022/04/24 02:01:36;;;;;;;7.35;4.25;;;;;;;12.01;53.24;100147.75;5113954;28;20039;-45
2022/04/24 02:04:04;;;;;;;7.25;4.53;;;;;;;12.00;52.66;100154.31;5112873;28;20130;-49
2022/04/24 02:06:32;;;;;;;6.97;4.65;;;;;;;12.01;52.72;100155.94;5113036;28;20042;-50
2022/04/24 02:09:00;;;;;;;7.05;5.00;;;;;;;12.00;52.75;100155.13;5132916;27;20047;-48
2022/04/24 02:11:28;;;;;;;7.85;4.65;;;;;;;11.90;54.02;100157.97;5134278;27;20047;-49
2022/04/24 02:13:56;;;;;;;7.22;4.70;;;;;;;11.88;53.48;100155.56;5117304;28;20044;-48
2022/04/24 02:16:23;;;;;;;7.93;4.75;;;;;;;11.87;53.58;100156.66;5112570;28;20059;-48
2022/04/24 02:18:51;;;;;;;6.85;4.60;;;;;;;11.82;53.37;100153.16;5113755;28;20044;-47
2022/04/24 02:21:19;;;;;;;8.60;4.57;;;;;;;11.81;54.04;100152.34;5125265;28;20047;-50
2022/04/24 02:23:47;;;;;;;7.93;4.85;;;;;;;11.69;54.13;100151.97;5114581;27;20050;-48
2022/04/24 02:26:15;;;;;;;7.60;5.05;;;;;;;11.69;54.58;100158.22;5113709;28;20508;-47
2022/04/24 02:28:42;;;;;;;6.43;4.72;;;;;;;11.81;53.75;100146.88;5113324;28;20390;-49
2022/04/24 02:31:10;;;;;;;8.63;4.75;;;;;;;11.83;53.86;100143.84;5111596;28;20066;-48
2022/04/24 02:33:38;;;;;;;8.55;5.05;;;;;;;11.77;54.21;100147.75;5113100;28;20093;-48
2022/04/24 02:36:06;;;;;;;7.20;4.95;;;;;;;11.70;53.80;100150.84;5113261;28;20046;-48
2022/04/24 02:38:34;;;;;;;8.85;5.40;;;;;;;11.61;54.06;100144.41;5113626;28;20405;-49
2022/04/24 02:41:02;;;;;;;9.90;5.53;;;;;;;11.58;54.32;100155.91;5113561;28;20489;-50
2022/04/24 02:43:29;;;;;;;7.45;5.18;;;;;;;11.46;54.50;100159.84;5112244;28;20047;-49
2022/04/24 02:45:57;;;;;;;8.05;5.32;;;;;;;11.56;54.57;100158.91;5112050;28;20051;-49
2022/04/24 02:48:27;;;;;;;7.68;5.25;;;;;;;11.49;54.95;100158.44;5113502;28;20055;-49
2022/04/24 02:50:55;;;;;;;8.90;5.72;;;;;;;11.50;55.22;100155.44;5113569;28;20047;-49
2022/04/24 02:53:23;;;;;;;8.38;5.35;;;;;;;11.50;55.12;100160.91;5111778;28;20050;-49
2022/04/24 02:55:51;;;;;;;9.50;5.50;;;;;;;11.54;55.11;100158.38;5111080;28;20040;-50
2022/04/24 02:58:20;;;;;;;7.88;5.30;;;;;;;11.51;55.35;100167.16;5113103;28;20397;-51
2022/04/24 03:00:51;;;;;;;7.93;5.63;;;;;;;11.46;55.14;100165.31;5113347;28;20051;-52
2022/04/24 03:03:19;;;;;;;7.35;5.25;;;;;;;11.40;55.48;100166.47;5113095;28;20508;-46
2022/04/24 03:05:50;;;;;;;8.20;5.28;;;;;;;11.39;55.82;100164.84;5113086;28;20126;-46
2022/04/24 03:08:19;;;;;;;10.18;5.22;;;;;;;11.33;55.78;100167.91;5114066;28;20553;-48
2022/04/24 03:10:47;;;;;;;6.68;4.88;;;;;;;11.27;56.42;100167.16;5133802;28;20039;-51
2022/04/24 03:13:15;;;;;;;8.60;5.60;;;;;;;11.16;57.14;100165.63;5117420;27;20040;-46
2022/04/24 03:15:43;;;;;;;8.02;5.50;;;;;;;11.19;57.20;100160.41;5111969;28;20044;-45
2022/04/24 03:18:10;;;;;;;8.82;5.72;;;;;;;11.27;56.70;100158.97;5112040;28;20044;-46
2022/04/24 03:20:38;;;;;;;6.45;4.60;;;;;;;11.17;57.54;100161.81;5112951;28;20051;-46
2022/04/24 03:23:06;;;;;;;8.68;5.55;;;;;;;11.12;57.57;100173.56;5116414;28;20056;-45
2022/04/24 03:25:34;;;;;;;8.88;5.63;;;;;;;11.13;57.61;100163.47;5116495;28;20043;-45
2022/04/24 03:28:02;;;;;;;9.48;5.35;;;;;;;11.01;57.72;100169.31;5116497;28;20047;-46
2022/04/24 03:30:30;;;;;;;8.60;5.43;;;;;;;11.01;58.72;100175.56;5116697;28;20051;-45
2022/04/24 03:32:57;;;;;;;7.60;5.40;;;;;;;11.05;58.66;100165.72;5114188;28;20044;-47
2022/04/24 03:35:26;;;;;;;10.55;6.00;;;;;;;11.05;58.53;100170.38;5116170;28;20044;-46
2022/04/24 03:37:53;;;;;;;9.07;5.43;;;;;;;11.13;58.26;100166.19;5116230;28;20066;-48
2022/04/24 03:40:21;;;;;;;8.50;5.15;;;;;;;11.05;58.37;100168.44;5115068;28;20526;-46
2022/04/24 03:42:49;;;;;;;8.90;5.78;;;;;;;11.03;58.63;100175.28;5116290;28;20035;-46
2022/04/24 03:45:17;;;;;;;8.20;5.05;;;;;;;10.94;59.36;100164.19;5116954;28;20401;-46
2022/04/24 03:47:45;;;;;;;9.23;5.13;;;;;;;10.93;59.56;100165.28;5115627;28;20066;-46
2022/04/24 03:50:13;;;;;;;8.38;5.72;;;;;;;10.81;60.08;100164.88;5115279;28;20051;-49
2022/04/24 03:52:41;;;;;;;8.07;5.25;;;;;;;10.80;59.95;100164.06;5115740;27;20067;-48
2022/04/24 03:55:09;;;;;;;7.25;5.15;;;;;;;10.77;60.67;100163.78;5137027;27;20404;-50
2022/04/24 03:57:37;;;;;;;8.85;5.80;;;;;;;10.87;60.44;100169.16;5112841;28;20051;-50
2022/04/24 04:00:07;;;;;;;7.15;5.30;;;;;;;10.83;60.02;100163.47;5114753;28;20043;-49
2022/04/24 04:02:45;;;;;;;9.82;6.05;;;;;;;10.75;60.75;100160.53;5129961;27;20035;-52
2022/04/24 04:05:13;;;;;;;11.63;5.20;;;;;;;10.71;61.09;100165.75;5121960;27;20392;-50
2022/04/24 04:07:40;;;;;;;10.15;5.63;;;;;;;10.65;61.43;100166.88;5114431;28;20568;-50
2022/04/24 04:10:08;;;;;;;8.15;5.65;;;;;;;10.64;61.28;100160.63;5116049;27;20430;-47
2022/04/24 04:12:36;;;;;;;8.60;5.15;;;;;;;10.68;61.81;100160.06;5114911;28;20047;-48
2022/04/24 04:15:05;;;;;;;8.20;4.97;;;;;;;10.75;61.39;100171.44;5114760;28;20051;-54
2022/04/24 04:17:33;;;;;;;7.65;5.30;;;;;;;10.78;61.32;100165.44;5115021;28;20040;-47
2022/04/24 04:20:01;;;;;;;10.55;5.57;;;;;;;10.59;61.36;100163.41;5115568;28;20104;-47
2022/04/24 04:22:28;;;;;;;8.35;5.22;;;;;;;10.55;61.73;100166.97;5114607;28;20070;-52
2022/04/24 04:24:56;;;;;;;9.43;5.90;;;;;;;10.51;62.26;100174.91;5114157;28;20048;-49
2022/04/24 04:27:26;;;;;;;8.25;5.38;;;;;;;10.50;62.15;100165.09;5113937;28;20515;-53
2022/04/24 04:29:54;;;;;;;8.55;5.43;;;;;;;10.52;62.41;100165.63;5113931;28;20032;-52
2022/04/24 04:32:22;;;;;;;7.72;4.88;;;;;;;10.53;62.24;100164.53;5115181;28;20039;-45
2022/04/24 04:34:50;;;;;;;8.38;5.53;;;;;;;10.48;62.29;100171.94;5115483;28;20043;-46
2022/04/24 04:37:17;;;;;;;8.38;4.57;;;;;;;10.31;62.79;100175.03;5113816;28;20047;-45
2022/04/24 04:39:45;;;;;;;6.68;4.70;;;;;;;10.28;63.29;100175.56;5113874;28;20040;-45
2022/04/24 04:42:12;;;;;;;8.48;5.68;;;;;;;10.32;63.18;100176.66;5114649;28;20379;-47
2022/04/24 04:44:40;;;;;;;6.85;5.00;;;;;;;10.30;63.25;100184.31;5115182;28;20386;-45
2022/04/24 04:47:08;;;;;;;8.18;5.13;;;;;;;10.26;63.60;100191.38;5114886;28;20062;-46
2022/04/24 04:49:36;;;;;;;10.75;5.85;;;;;;;10.29;63.39;100186.19;5114335;28;20031;-45
2022/04/24 04:52:04;;;;;;;9.45;5.60;;;;;;;10.13;63.93;100198.25;5129948;27;20039;-49
2022/04/24 04:54:31;;;;;;;9.90;5.97;;;;;;;10.02;64.33;100201.00;5106027;27;20421;-46
2022/04/24 04:56:59;;;;;;;11.13;5.30;;;;;;;9.92;64.58;100192.91;5119755;27;20051;-47
2022/04/24 04:59:27;;;;;;;10.00;5.35;;;;;;;10.16;63.96;100205.88;5114493;28;20059;-47
2022/04/24 05:01:54;;;;;;;9.13;5.40;;;;;;;10.20;63.69;100204.22;5117893;27;20039;-48
2022/04/24 05:04:22;;;;;;;9.65;5.47;;;;;;;10.27;63.55;100203.88;5134994;27;20042;-51
2022/04/24 05:06:50;;;;;;;7.70;5.18;;;;;;;10.27;63.55;100215.59;5124908;27;20042;-48
2022/04/24 05:09:17;;;;;;;9.80;5.50;;;;;;;10.27;63.47;100206.59;5124070;27;20038;-50
2022/04/24 05:11:45;;;;;;;11.73;5.53;;;;;;;10.12;63.69;100213.75;5127025;27;20436;-53
2022/04/24 05:14:12;;;;;;;9.40;5.10;;;;;;;10.16;63.79;100223.00;5114392;28;20043;-48
2022/04/24 05:16:40;;;;;;;9.07;5.10;;;;;;;10.21;63.71;100222.97;5113140;28;20128;-48
2022/04/24 05:19:08;;;;;;;8.88;5.55;;;;;;;10.13;64.04;100218.13;5113980;28;20024;-52
2022/04/24 05:21:36;;;;;;;8.73;5.28;;;;;;;10.11;64.15;100227.66;5113420;28;20051;-50
2022/04/24 05:24:04;;;;;;;10.20;5.10;;;;;;;10.17;63.93;100230.09;5114021;28;20037;-51
2022/04/24 05:26:31;;;;;;;8.52;5.30;;;;;;;10.15;63.78;100237.72;5113902;28;20491;-51
2022/04/24 05:28:59;;;;;;;11.02;5.25;;;;;;;10.05;63.82;100234.22;5121592;27;20043;-51
2022/04/24 05:31:26;;;;;;;7.90;5.25;;;;;;;9.98;64.51;100239.94;5132064;27;20464;-50
2022/04/24 05:33:55;;;;;;;9.25;5.43;;;;;;;9.95;64.47;100243.22;5113966;28;20400;-52
2022/04/24 05:36:22;;;;;;;12.75;5.78;;;;;;;9.98;64.51;100234.50;5113210;28;20043;-50
2022/04/24 05:38:50;;;;;;;9.65;5.70;;;;;;;10.05;64.23;100245.09;5111501;28;20158;-50
2022/04/24 05:41:18;;;;;;;9.15;5.38;;;;;;;10.03;64.28;100239.97;5095803;28;20040;-49
2022/04/24 05:43:45;;;;;;;8.90;5.38;;;;;;;10.05;63.76;100235.03;5113254;28;20405;-47
2022/04/24 05:46:13;;;;;;;7.85;5.10;;;;;;;10.14;63.96;100238.00;5095644;28;20401;-49
2022/04/24 05:48:41;;;;;;;14.02;5.00;;;;;;;10.19;63.74;100243.41;5112543;28;20079;-49
2022/04/24 05:51:08;;;;;;;8.57;5.05;;;;;;;10.18;63.11;100239.06;5113682;28;20135;-47
2022/04/24 05:53:36;;;;;;;8.18;5.15;;;;;;;10.22;63.14;100240.94;4405557;28;10000322;-50
2022/04/24 05:56:04;;;;;;;9.35;5.38;;;;;;;10.31;62.95;100243.09;5110855;28;20050;-50
2022/04/24 05:58:31;;;;;;;7.93;5.00;;;;;;;10.33;62.73;100247.19;5110629;28;20056;-50
2022/04/24 06:00:59;;;;;;;9.55;4.88;;;;;;;10.31;62.64;100243.91;5109337;27;20082;-46
2022/04/24 06:03:27;;;;;;;8.70;5.15;;;;;;;10.20;63.30;100245.84;5108975;28;20055;-50
2022/04/24 06:05:54;;;;;;;8.98;4.68;;;;;;;10.29;62.60;100246.09;5110826;28;20130;-51
2022/04/24 06:08:22;;;;;;;10.70;4.47;;;;;;;10.27;62.96;100252.88;5109816;28;20047;-49
2022/04/24 06:10:50;;;;;;;6.53;4.40;;;;;;;10.41;61.92;100253.94;5108745;28;20042;-50
2022/04/24 06:13:17;;;;;;;8.25;4.60;;;;;;;10.44;61.71;100254.22;5110105;28;20036;-51
2022/04/24 06:15:45;;;;;;;7.13;4.85;;;;;;;10.44;61.94;100253.41;5110708;28;20512;-48
2022/04/24 06:18:13;;;;;;;7.93;4.63;;;;;;;10.46;62.03;100256.63;5109408;28;20055;-49
2022/04/24 06:20:40;;;;;;;9.95;5.15;;;;;;;10.38;61.49;100257.22;5108671;28;20563;-48
2022/04/24 06:23:08;;;;;;;8.52;5.75;;;;;;;10.35;61.83;100265.97;5107513;28;20716;-52
2022/04/24 06:25:36;;;;;;;8.30;5.22;;;;;;;10.43;61.66;100254.47;5110190;28;20044;-45
2022/04/24 06:28:04;;;;;;;8.57;5.15;;;;;;;10.56;61.35;100251.16;5111893;28;20032;-44
2022/04/24 06:30:33;;;;;;;8.65;5.22;;;;;;;10.58;61.18;100248.13;5110381;28;20074;-46
2022/04/24 06:33:01;;;;;;;11.05;5.10;;;;;;;10.57;60.81;100250.03;5108934;28;20047;-45
2022/04/24 06:35:29;;;;;;;12.73;5.68;;;;;;;10.59;61.12;100253.28;5110186;28;20051;-47
2022/04/24 06:37:56;;;;;;;7.90;5.20;;;;;;;10.62;60.46;100255.44;5107782;28;20040;-47
2022/04/24 06:40:25;;;;;;;8.80;4.90;;;;;;;10.67;60.29;100257.31;5115466;28;20043;-46
2022/04/24 06:42:55;;;;;;;9.32;5.13;;;;;;;10.76;59.87;100263.00;5112386;28;20043;-49
2022/04/24 06:45:26;;;;;;;7.65;5.00;;;;;;;10.85;60.24;100261.31;5108341;28;20039;-51
2022/04/24 06:48:05;;;;;;;9.35;5.07;;;;;;;10.87;60.75;100250.91;5089661;28;20044;-54
2022/04/24 06:50:34;;;;;;;12.23;5.25;;;;;;;10.97;59.67;100261.75;5105049;28;20036;-52
2022/04/24 06:53:17;;;;;;;8.07;5.28;;;;;;;11.07;59.40;100266.31;5109133;28;20047;-48
2022/04/24 06:55:48;;;;;;;10.55;5.78;;;;;;;10.97;59.12;100272.66;5110009;28;20043;-51
2022/04/24 06:58:17;;;;;;;11.25;5.80;;;;;;;10.97;58.80;100271.84;5117350;27;20051;-47
2022/04/24 07:00:46;;;;;;;9.68;5.00;;;;;;;10.97;58.76;100267.22;5133091;27;20485;-50
2022/04/24 07:03:32;;;;;;;11.40;5.70;;;;;;;11.02;59.54;100267.16;5096513;28;20050;-54
2022/04/24 07:06:03;;;;;;;9.70;5.93;;;;;;;11.05;59.16;100274.78;5113407;28;20472;-53
2022/04/24 07:08:31;;;;;;;8.32;5.80;;;;;;;11.12;58.24;100273.66;5110987;27;20118;-48
2022/04/24 07:10:58;;;;;;;9.32;6.10;;;;;;;11.12;58.63;100273.66;5113281;28;20055;-50
2022/04/24 07:13:26;;;;;;;8.68;5.45;;;;;;;11.13;58.42;100276.06;5113613;28;20412;-47
2022/04/24 07:15:54;;;;;;;11.43;5.75;;;;;;;11.11;58.02;100272.81;5113389;28;20043;-45
2022/04/24 07:18:22;;;;;;;9.48;6.28;;;;;;;11.16;57.66;100271.97;5112345;28;20147;-46
2022/04/24 07:20:50;;;;;;;11.07;5.90;;;;;;;11.21;58.18;100278.19;5114509;28;20036;-45
2022/04/24 07:23:17;;;;;;;13.55;5.80;;;;;;;11.24;57.92;100277.63;5123853;27;20119;-45
2022/04/24 07:25:45;;;;;;;10.52;5.68;;;;;;;11.27;57.60;100276.22;5117093;27;20085;-45
2022/04/24 07:28:18;;;;;;;10.40;5.68;;;;;;;11.27;57.96;100279.78;5117353;28;20050;-47
2022/04/24 07:30:47;;;;;;;8.32;5.22;;;;;;;11.34;58.06;100287.63;5115627;28;20035;-46
2022/04/24 07:33:14;;;;;;;14.38;6.00;;;;;;;11.46;57.21;100284.53;5116903;28;20439;-47
2022/04/24 07:35:42;;;;;;;12.60;5.68;;;;;;;11.50;56.71;100291.84;5115151;28;20043;-46
2022/04/24 07:38:10;;;;;;;9.52;5.65;;;;;;;11.53;55.92;100290.47;5116595;28;20127;-46
2022/04/24 07:40:41;;;;;;;10.10;5.88;;;;;;;11.57;56.86;100290.69;5116257;28;20040;-49
2022/04/24 07:43:10;;;;;;;10.88;6.00;;;;;;;11.64;56.39;100285.69;5114601;28;20046;-47
2022/04/24 07:45:40;;;;;;;9.68;6.00;;;;;;;11.66;56.37;100283.50;5116360;28;20134;-47
2022/04/24 07:48:10;;;;;;;10.55;5.65;;;;;;;11.70;56.36;100290.81;5116226;27;20048;-52
2022/04/24 07:50:40;;;;;;;10.75;6.22;;;;;;;11.76;55.72;100282.59;5114970;28;20093;-51
2022/04/24 07:53:09;;;;;;;12.77;5.93;;;;;;;11.74;55.38;100288.34;5115864;28;20436;-50
2022/04/24 07:55:37;;;;;;;16.48;6.20;;;;;;;11.73;55.92;100286.72;5114746;28;20517;-51
2022/04/24 07:58:05;;;;;;;8.77;5.80;;;;;;;11.76;55.48;100283.41;5114478;28;20090;-49
2022/04/24 08:00:34;;;;;;;9.15;5.97;;;;;;;11.85;55.73;100278.94;5116013;28;20043;-53
2022/04/24 08:03:04;;;;;;;9.10;5.50;;;;;;;11.90;55.43;100287.09;5115050;28;20063;-52
2022/04/24 08:05:40;;;;;;;10.93;5.90;;;;;;;11.97;55.06;100288.69;5115644;28;20044;-52
2022/04/24 08:08:09;;;;;;;9.70;6.23;;;;;;;12.03;55.32;100293.00;5115502;28;20044;-49
2022/04/24 08:10:39;;;;;;;11.20;6.03;;;;;;;12.09;54.97;100295.34;5097682;28;20384;-50
2022/04/24 08:13:08;;;;;;;9.27;5.80;;;;;;;12.10;55.25;100299.72;5115082;28;20046;-49
2022/04/24 08:15:42;;;;;;;14.02;6.93;;;;;;;12.15;54.82;100302.38;5095169;28;20051;-50
2022/04/24 08:18:10;;;;;;;8.93;5.57;;;;;;;12.20;54.55;100297.97;5095175;28;20040;-50
2022/04/24 08:20:39;;;;;;;9.30;5.88;;;;;;;12.24;54.04;100294.38;5095103;28;20113;-51
2022/04/24 08:23:08;;;;;;;10.73;6.97;;;;;;;12.20;54.10;100304.25;5094774;28;20040;-49
2022/04/24 08:25:36;;;;;;;10.27;6.18;;;;;;;12.24;54.44;100296.25;5094697;28;20074;-51
2022/04/24 08:28:06;;;;;;;15.10;6.47;;;;;;;12.31;54.06;100303.03;5114050;28;20429;-53
2022/04/24 08:30:53;;;;;;;12.52;8.15;;;;;;;12.34;54.68;100299.69;5114320;28;20066;-50
2022/04/24 08:33:22;;;;;;;11.25;6.72;;;;;;;12.39;53.83;100298.00;5115155;28;20116;-48
2022/04/24 08:35:49;;;;;;;13.07;7.45;;;;;;;12.44;53.37;100303.41;5097134;28;20040;-48
2022/04/24 08:38:17;;;;;;;11.07;7.15;;;;;;;12.50;53.59;100300.28;5115065;28;20048;-50
2022/04/24 08:40:46;;;;;;;14.25;7.60;;;;;;;12.55;54.26;100304.88;5113845;28;20050;-51
2022/04/24 08:43:14;;;;;;;9.32;7.05;;;;;;;12.60;53.84;100302.06;5113854;28;20409;-53
2022/04/24 08:45:42;;;;;;;13.35;7.40;;;;;;;12.69;53.31;100292.13;5096903;28;20131;-48
2022/04/24 08:48:10;;;;;;;12.57;7.22;;;;;;;12.73;53.75;100306.03;5113809;28;20035;-50
2022/04/24 08:50:38;;;;;;;10.20;6.70;;;;;;;12.82;52.71;100306.16;5114924;28;20515;-47
2022/04/24 08:53:07;;;;;;;12.27;6.90;;;;;;;12.87;52.97;100303.34;5113978;28;20036;-50
2022/04/24 08:55:35;;;;;;;9.98;7.18;;;;;;;12.89;52.44;100312.91;5115022;28;20417;-50
2022/04/24 08:58:03;;;;;;;10.80;7.18;;;;;;;12.94;52.73;100317.44;5113374;28;20069;-54
2022/04/24 09:00:30;;;;;;;12.32;7.60;;;;;;;12.92;52.49;100308.75;5114597;28;20061;-47
2022/04/24 09:02:58;;;;;;;13.63;8.25;;;;;;;12.98;51.80;100313.03;5113378;28;20043;-48
2022/04/24 09:05:30;;;;;;;12.20;7.38;;;;;;;13.02;52.07;100316.81;5114252;28;20047;-47
2022/04/24 09:08:11;;;;;;;11.93;7.68;;;;;;;13.08;52.28;100318.34;5113706;28;20043;-53
2022/04/24 09:10:59;;;;;;;10.18;6.97;;;;;;;13.15;51.98;100307.81;5114797;28;20038;-47
2022/04/24 09:16:35;;;;;;;11.32;7.40;;;;;;;13.28;51.92;100305.50;5114114;28;20075;-47
2022/04/24 09:19:03;;;;;;;12.45;7.80;;;;;;;13.30;52.05;100306.00;5092248;28;20052;-51
2022/04/24 09:21:31;;;;;;;11.85;7.38;;;;;;;13.33;51.38;100308.16;5093939;28;20047;-51
2022/04/24 09:24:00;;;;;;;12.02;7.90;;;;;;;13.38;51.53;100311.59;5093490;28;20040;-51
2022/04/24 09:26:28;;;;;;;11.73;6.90;;;;;;;13.40;51.13;100314.06;5093744;28;20048;-49
2022/04/24 09:29:13;;;;;;;12.57;7.75;;;;;;;13.45;51.65;100311.22;5096314;28;20036;-49
2022/04/24 09:31:48;;;;;;;14.07;8.07;;;;;;;13.56;51.17;100311.84;5114133;28;20489;-47
2022/04/24 09:34:17;;;;;;;10.50;7.60;;;;;;;13.58;50.90;100317.84;5114360;28;20123;-49
2022/04/24 09:36:46;;;;;;;11.20;7.03;;;;;;;13.61;51.00;100317.22;5114082;28;20124;-50
2022/04/24 09:39:14;;;;;;;10.32;6.50;;;;;;;13.62;50.64;100310.66;5113062;28;20047;-49
2022/04/24 09:41:41;;;;;;;13.38;7.93;;;;;;;13.70;50.17;100309.16;5095723;28;20388;-49
2022/04/24 09:44:13;;;;;;;12.95;7.70;;;;;;;13.74;51.08;100307.44;5113592;28;20040;-49
2022/04/24 09:46:42;;;;;;;10.57;7.05;;;;;;;13.76;50.39;100310.69;5113880;28;20051;-51
2022/04/24 09:49:10;;;;;;;12.10;7.78;;;;;;;13.82;50.63;100314.94;5112537;28;20067;-48
2022/04/24 09:51:42;;;;;;;12.95;7.10;;;;;;;13.90;50.68;100316.16;5113756;28;20059;-50
2022/04/24 09:54:10;;;;;;;10.75;7.43;;;;;;;13.92;48.65;100303.78;5113549;28;20035;-48
2022/04/24 09:56:39;;;;;;;11.60;7.63;;;;;;;13.95;49.04;100308.69;5112757;28;20048;-48
2022/04/24 09:59:07;;;;;;;11.45;7.70;;;;;;;13.99;49.00;100325.31;5113325;28;20060;-48
2022/04/24 10:01:35;;;;;;;11.48;7.13;;;;;;;13.98;48.65;100304.53;5112401;28;20042;-48
2022/04/24 10:04:05;;;;;;;14.35;6.90;;;;;;;14.03;48.59;100321.66;5112598;28;20489;-50
2022/04/24 10:06:34;;;;;;;9.82;7.18;;;;;;;14.09;48.62;100321.56;5112304;28;20039;-47
2022/04/24 10:09:04;;;;;;;11.45;7.82;;;;;;;14.10;49.94;100321.25;5112338;28;20036;-48
2022/04/24 10:11:32;;;;;;;12.27;7.90;;;;;;;14.20;49.07;100307.34;5112337;28;20052;-48
2022/04/24 10:14:04;;;;;;;10.50;7.05;;;;;;;14.27;48.48;100310.50;5113711;28;20044;-50
2022/04/24 10:16:50;;;;;;;15.68;7.40;;;;;;;14.26;48.00;100319.00;5113562;28;20055;-49
2022/04/24 10:19:57;;;;;;;12.48;7.90;;;;;;;14.26;47.91;100314.38;5112481;28;20032;-48
2022/04/24 10:22:50;;;;;;;10.60;6.82;;;;;;;14.31;48.54;100323.59;5112701;28;20036;-50
2022/04/24 10:25:38;;;;;;;10.10;7.18;;;;;;;14.37;48.73;100309.47;5112271;28;20130;-52
2022/04/24 10:28:16;;;;;;;11.20;7.40;;;;;;;14.48;48.10;100310.09;5111898;28;20046;-51
2022/04/24 10:31:05;;;;;;;12.25;7.10;;;;;;;14.57;47.57;100318.41;5116702;28;20156;-51
2022/04/24 10:33:34;;;;;;;12.98;8.55;;;;;;;14.54;47.40;100313.56;5117833;28;20047;-53
2022/04/24 10:36:13;;;;;;;10.63;6.95;;;;;;;14.54;48.35;100310.81;5116152;28;20062;-50
2022/04/24 10:38:56;;;;;;;11.55;6.78;;;;;;;14.57;47.85;100307.44;5116250;28;20470;-49
2022/04/24 10:41:54;;;;;;;11.90;6.40;;;;;;;14.58;46.84;100307.16;5096913;28;20043;-48
2022/04/24 10:44:22;;;;;;;12.43;7.28;;;;;;;14.61;47.52;100311.22;5097006;28;20062;-48
2022/04/24 10:46:51;;;;;;;12.80;7.53;;;;;;;14.76;47.71;100323.75;5095304;28;20036;-49
2022/04/24 10:49:19;;;;;;;11.35;7.18;;;;;;;14.78;46.87;100318.78;5110458;28;20123;-50
2022/04/24 10:51:59;;;;;;;11.73;7.30;;;;;;;14.70;47.95;100320.34;5116747;28;20044;-51
2022/04/24 10:54:35;;;;;;;12.30;6.80;;;;;;;14.70;47.54;100314.84;5117328;28;20043;-50
2022/04/24 10:57:19;;;;;;;;;;;;;;;14.77;48.93;100317.97;5118002;28;20048;-53
2022/04/24 10:59:49;;;;;;;13.57;7.18;;;;;;;14.92;47.97;100314.06;5117972;28;20280;-51
2022/04/24 11:02:28;;;;;;;10.75;6.82;;;;;;;14.89;47.50;100309.22;5116438;28;20540;-51
2022/04/24 11:05:07;;;;;;;10.40;7.35;;;;;;;14.94;47.47;100319.25;5099483;28;20036;-50
2022/04/24 11:07:35;;;;;;;13.02;6.93;;;;;;;14.95;47.70;100309.91;5117059;28;20040;-51
2022/04/24 11:10:11;;;;;;;11.32;6.60;;;;;;;15.07;47.43;100310.97;5115417;28;20055;-47
2022/04/24 11:12:40;;;;;;;11.88;7.13;;;;;;;15.25;46.18;100314.66;5116930;28;20561;-47
2022/04/24 11:15:15;;;;;;;8.23;5.28;;;;;;;15.16;46.62;100310.25;5099476;28;20461;-50
2022/04/24 11:17:43;;;;;;;9.70;6.22;;;;;;;15.14;46.22;100310.53;5117136;28;20413;-46
2022/04/24 11:20:15;;;;;;;9.50;7.22;;;;;;;15.10;46.33;100309.53;5115436;28;20042;-53
2022/04/24 11:22:50;;;;;;;21.25;7.93;;;;;;;15.12;46.94;100315.53;5098576;28;20039;-50
2022/04/24 11:25:20;;;;;;;8.65;6.43;;;;;;;15.17;46.52;100320.09;5116486;28;20500;-48
2022/04/24 11:28:06;;;;;;;10.23;6.88;;;;;;;15.25;46.32;100311.94;5115556;28;20052;-50
2022/04/24 11:30:37;;;;;;;9.73;6.60;;;;;;;15.31;45.90;100316.16;5116473;28;20431;-50
2022/04/24 11:33:08;;;;;;;8.30;5.97;;;;;;;15.31;45.73;100313.41;5116768;28;20082;-49
2022/04/24 11:35:38;;;;;;;10.65;6.70;;;;;;;15.28;47.26;100300.31;5097998;28;20459;-47